Time;durP1;ratioP1;P1;durP2;ratioP2;P2;SDS_P1;SDS_P2;PMS_P1;PMS_P2;Temp;Humidity;BMP_temperature;BMP_pressure;BME280_temperature;BME280_humidity;BME280_pressure;Samples;Min_cycle;Max_cycle;Signal;HPM_P1;HPM_P2
2024/01/06 06:00:39;;;;;;;8.88;4.10;;;6.40;88.70;;;;;;4766001;23;20062;-80
2024/01/06 06:02:41;;;;;;;8.77;4.20;;;6.30;88.50;;;;;;4102769;29;20057;-79
2024/01/06 06:04:43;;;;;;;8.45;4.28;;;6.30;87.90;;;;;;4102900;29;20381;-79
2024/01/06 06:06:45;;;;;;;10.23;4.60;;;6.40;87.80;;;;;;4103104;29;20540;-78
2024/01/06 06:08:48;;;;;;;9.15;5.13;;;6.40;87.90;;;;;;4102922;29;20099;-80
2024/01/06 06:11:01;;;;;;;10.40;4.20;;;6.40;87.60;;;;;;4102570;29;20078;-80
2024/01/06 06:13:02;;;;;;;8.68;4.05;;;6.50;87.60;;;;;;4102769;29;20136;-80
2024/01/06 06:15:06;;;;;;;8.20;3.95;;;6.50;87.50;;;;;;4102311;29;20054;-79
2024/01/06 06:17:09;;;;;;;9.02;3.90;;;6.50;87.30;;;;;;4102558;29;20055;-79
2024/01/06 06:19:11;;;;;;;8.77;3.92;;;6.50;87.40;;;;;;4102692;29;20043;-78
2024/01/06 06:21:13;;;;;;;6.55;3.70;;;6.50;87.60;;;;;;4101276;28;20106;-79
2024/01/06 06:23:15;;;;;;;7.28;3.78;;;6.50;87.80;;;;;;4099592;28;20047;-80
2024/01/06 06:25:16;;;;;;;8.38;3.97;;;6.50;87.70;;;;;;4091604;29;20083;-79
2024/01/06 06:27:18;;;;;;;7.63;4.10;;;6.40;87.90;;;;;;4101988;29;20047;-79
2024/01/06 06:29:20;;;;;;;9.52;4.10;;;6.40;88.00;;;;;;4102561;29;20098;-80
2024/01/06 06:31:22;;;;;;;7.78;3.75;;;6.40;87.80;;;;;;4102444;29;20051;-80
2024/01/06 06:33:25;;;;;;;9.43;4.35;;;6.30;87.50;;;;;;4101570;28;20047;-79
2024/01/06 06:35:27;;;;;;;6.32;3.80;;;6.30;87.60;;;;;;4102345;29;20102;-79
2024/01/06 06:37:29;;;;;;;8.07;4.40;;;6.30;87.80;;;;;;4102146;29;20548;-79
2024/01/06 06:39:31;;;;;;;10.13;4.35;;;6.30;88.00;;;;;;4102357;29;20051;-80
2024/01/06 06:41:33;;;;;;;10.32;4.22;;;6.40;87.60;;;;;;4102106;29;20047;-80
2024/01/06 06:43:35;;;;;;;10.20;4.18;;;6.40;87.50;;;;;;4102055;29;20047;-78
2024/01/06 06:45:37;;;;;;;10.38;4.78;;;6.40;87.80;;;;;;4101703;29;20043;-79
2024/01/06 06:47:38;;;;;;;10.70;4.65;;;6.40;87.90;;;;;;4102148;29;20134;-80
2024/01/06 06:49:41;;;;;;;8.95;4.50;;;6.40;87.90;;;;;;4103167;29;20086;-79
2024/01/06 06:51:46;;;;;;;11.20;5.38;;;6.40;87.70;;;;;;4102380;29;20114;-79
2024/01/06 06:53:48;;;;;;;9.15;4.40;;;6.40;87.60;;;;;;4102182;29;20047;-79
2024/01/06 06:55:50;;;;;;;8.75;4.55;;;6.40;87.70;;;;;;4086451;29;20047;-79
2024/01/06 06:57:51;;;;;;;9.18;4.55;;;6.40;87.90;;;;;;4086197;29;20103;-77
2024/01/06 06:59:53;;;;;;;10.70;4.18;;;6.30;87.80;;;;;;4086095;29;20059;-78
2024/01/06 07:01:54;;;;;;;12.52;4.60;;;6.30;88.40;;;;;;4098387;29;20058;-76
2024/01/06 07:03:57;;;;;;;13.77;6.22;;;6.20;88.60;;;;;;4101819;29;20051;-78
2024/01/06 07:06:00;;;;;;;9.05;5.32;;;6.10;88.80;;;;;;4102022;29;20126;-80
2024/01/06 07:08:02;;;;;;;12.20;5.75;;;6.10;89.00;;;;;;4101796;29;20044;-79
2024/01/06 07:10:05;;;;;;;8.85;5.25;;;6.10;88.90;;;;;;4101603;29;20420;-79
2024/01/06 07:12:07;;;;;;;8.73;4.50;;;6.20;89.70;;;;;;4093168;29;20102;-79
2024/01/06 07:14:09;;;;;;;9.75;4.45;;;6.10;89.20;;;;;;4101801;29;20047;-80
2024/01/06 07:16:11;;;;;;;8.88;4.00;;;6.20;88.50;;;;;;4101586;29;20047;-77
2024/01/06 07:18:13;;;;;;;11.38;4.93;;;6.20;88.30;;;;;;4101563;29;20138;-79
2024/01/06 07:20:15;;;;;;;10.45;4.20;;;6.30;88.40;;;;;;4101918;29;20551;-79
2024/01/06 07:22:18;;;;;;;8.43;3.70;;;6.30;88.10;;;;;;4102515;29;20090;-80
2024/01/06 07:24:20;;;;;;;9.77;4.13;;;6.40;87.50;;;;;;4101787;29;20438;-80
2024/01/06 07:26:22;;;;;;;7.18;4.00;;;6.40;87.60;;;;;;4101862;29;20098;-79
2024/01/06 07:28:24;;;;;;;9.38;3.70;;;6.40;87.50;;;;;;4101774;29;20397;-80
2024/01/06 07:30:26;;;;;;;8.45;4.10;;;6.40;87.30;;;;;;4101420;29;20063;-80
2024/01/06 07:32:28;;;;;;;9.07;3.83;;;6.50;87.30;;;;;;4101060;29;20094;-80
2024/01/06 07:34:30;;;;;;;6.88;3.60;;;6.40;87.10;;;;;;4101741;29;20220;-81
2024/01/06 07:36:32;;;;;;;12.07;4.00;;;6.50;87.10;;;;;;4101340;29;20051;-79
2024/01/06 07:38:35;;;;;;;8.25;4.10;;;6.50;87.20;;;;;;4101597;29;20239;-80
2024/01/06 07:40:37;;;;;;;12.43;6.18;;;6.50;87.60;;;;;;4101324;29;20465;-79
2024/01/06 07:42:39;;;;;;;16.70;8.75;;;6.50;87.30;;;;;;4100821;29;20551;-79
2024/01/06 07:44:40;;;;;;;16.38;8.02;;;6.50;87.20;;;;;;4100261;28;20055;-77
2024/01/06 07:46:42;;;;;;;14.68;6.90;;;6.50;87.40;;;;;;4101474;29;20448;-81
2024/01/06 07:48:44;;;;;;;20.27;10.15;;;6.40;87.60;;;;;;4101345;29;20061;-79
2024/01/06 07:50:46;;;;;;;11.98;5.95;;;6.40;87.70;;;;;;4101516;29;20440;-79
2024/01/06 07:52:48;;;;;;;13.65;6.03;;;6.40;87.80;;;;;;4101049;29;20051;-79
2024/01/06 07:54:51;;;;;;;13.27;6.63;;;6.30;87.50;;;;;;4101230;29;20452;-81
2024/01/06 07:56:53;;;;;;;10.15;4.70;;;6.30;87.70;;;;;;4101524;29;20082;-80
2024/01/06 07:58:54;;;;;;;8.30;4.68;;;6.30;87.00;;;;;;4101435;29;20055;-81
2024/01/06 08:00:55;;;;;;;8.23;4.00;;;6.30;87.20;;;;;;4100957;29;20102;-80
2024/01/06 08:02:57;;;;;;;11.40;5.38;;;6.40;87.60;;;;;;4100642;29;20114;-79
2024/01/06 08:04:59;;;;;;;8.90;4.45;;;6.40;87.50;;;;;;4099744;29;20058;-79
2024/01/06 08:07:01;;;;;;;9.30;4.50;;;6.30;87.50;;;;;;4101225;29;20523;-79
2024/01/06 08:09:03;;;;;;;10.35;4.00;;;6.40;87.60;;;;;;4101175;29;20106;-79
2024/01/06 08:11:06;;;;;;;7.80;4.53;;;6.40;87.10;;;;;;4100905;29;20047;-79
2024/01/06 08:13:07;;;;;;;10.70;4.53;;;6.40;87.40;;;;;;4100705;29;20071;-81
2024/01/06 08:15:10;;;;;;;8.27;4.05;;;6.40;86.90;;;;;;4101110;29;20058;-78
2024/01/06 08:17:12;;;;;;;12.18;4.03;;;6.40;86.90;;;;;;4100946;29;20051;-80
2024/01/06 08:19:14;;;;;;;7.20;3.80;;;6.50;86.20;;;;;;4101177;29;20477;-79
2024/01/06 08:21:16;;;;;;;7.18;3.90;;;6.50;85.80;;;;;;4100938;29;20553;-80
2024/01/06 08:23:20;;;;;;;8.18;4.45;;;6.50;86.50;;;;;;4101072;29;20051;-81
2024/01/06 08:25:21;;;;;;;9.63;4.35;;;6.60;86.50;;;;;;4100657;29;20459;-79
2024/01/06 08:27:24;;;;;;;10.68;4.00;;;6.60;86.50;;;;;;4100786;29;20047;-80
2024/01/06 08:29:25;;;;;;;9.50;4.47;;;6.60;86.70;;;;;;4100525;29;20078;-79
2024/01/06 08:31:27;;;;;;;9.95;4.57;;;6.60;86.50;;;;;;4100450;29;20051;-80
2024/01/06 08:33:29;;;;;;;8.55;4.93;;;6.60;86.10;;;;;;4100838;29;20051;-79
2024/01/06 08:35:30;;;;;;;9.10;4.05;;;6.60;86.20;;;;;;4100582;29;20055;-79
2024/01/06 08:37:32;;;;;;;29.95;16.00;;;6.60;86.10;;;;;;4100593;29;20070;-79
2024/01/06 08:39:33;;;;;;;14.93;8.40;;;6.60;86.00;;;;;;4100623;29;20051;-80
2024/01/06 08:41:35;;;;;;;34.45;18.15;;;6.60;85.80;;;;;;4099786;29;20102;-79
2024/01/06 08:43:38;;;;;;;21.90;11.52;;;6.60;85.90;;;;;;4099898;29;20043;-77
2024/01/06 08:45:40;;;;;;;24.77;11.63;;;6.70;85.80;;;;;;4095435;28;20055;-78
2024/01/06 08:47:41;;;;;;;11.57;5.05;;;6.70;85.50;;;;;;4098655;29;20050;-78
2024/01/06 08:49:43;;;;;;;6.57;3.50;;;6.60;85.20;;;;;;4099865;29;20043;-80
2024/01/06 08:51:45;;;;;;;7.55;3.50;;;6.70;84.00;;;;;;4100256;29;20059;-79
2024/01/06 08:53:47;;;;;;;6.47;3.38;;;6.60;83.60;;;;;;4099093;28;20054;-80
2024/01/06 08:55:49;;;;;;;6.28;2.92;;;6.60;83.20;;;;;;4097229;28;20102;-79
2024/01/06 08:57:49;;;;;;;6.68;3.40;;;6.70;82.80;;;;;;4100302;29;20200;-80
2024/01/06 08:59:53;;;;;;;7.70;3.00;;;6.70;83.40;;;;;;4100055;29;20093;-80
2024/01/06 09:01:55;;;;;;;6.20;3.63;;;6.70;83.60;;;;;;4099449;29;20059;-81
2024/01/06 09:03:57;;;;;;;7.72;3.30;;;6.70;83.10;;;;;;4098681;29;20054;-78
2024/01/06 09:06:00;;;;;;;6.80;3.38;;;6.70;82.90;;;;;;4096964;28;20110;-79
2024/01/06 09:08:03;;;;;;;7.13;3.20;;;6.70;82.10;;;;;;4098948;29;20054;-80
2024/01/06 09:10:05;;;;;;;6.50;3.10;;;6.70;82.60;;;;;;4100343;29;20382;-81
2024/01/06 09:12:08;;;;;;;6.57;3.03;;;6.60;82.30;;;;;;4099121;28;20456;-79
2024/01/06 09:14:10;;;;;;;7.30;2.70;;;6.50;81.80;;;;;;4098526;28;20055;-79
2024/01/06 09:16:14;;;;;;;8.60;2.90;;;6.50;81.90;;;;;;4095752;29;20075;-77
2024/01/06 09:18:15;;;;;;;6.22;2.70;;;6.50;81.70;;;;;;4095858;28;20047;-79
2024/01/06 09:20:17;;;;;;;6.85;2.95;;;6.40;81.20;;;;;;4099888;29;20499;-77
2024/01/06 09:22:19;;;;;;;6.80;2.88;;;6.30;82.10;;;;;;4100039;29;20051;-79
2024/01/06 09:24:21;;;;;;;6.28;2.65;;;6.30;82.80;;;;;;4099337;28;20452;-79
2024/01/06 09:26:23;;;;;;;5.38;2.28;;;6.30;82.90;;;;;;4099856;29;20043;-77
2024/01/06 09:28:25;;;;;;;8.68;2.70;;;6.30;82.60;;;;;;4099769;29;20277;-77
2024/01/06 09:30:27;;;;;;;5.00;2.40;;;6.30;82.60;;;;;;4099939;29;20455;-81
2024/01/06 09:32:30;;;;;;;6.20;2.50;;;6.30;81.40;;;;;;4099334;29;20429;-77
2024/01/06 09:34:32;;;;;;;6.20;2.20;;;6.30;81.90;;;;;;4099714;29;20047;-78
2024/01/06 09:36:34;;;;;;;6.32;2.05;;;6.30;81.80;;;;;;4098260;28;20106;-78
2024/01/06 09:38:36;;;;;;;5.88;2.20;;;6.30;80.90;;;;;;4092382;28;20130;-79
2024/01/06 09:40:44;;;;;;;6.85;2.70;;;6.30;80.40;;;;;;4100152;28;20109;-80
2024/01/06 09:42:46;;;;;;;6.47;2.20;;;6.30;80.90;;;;;;4099948;29;20138;-79
2024/01/06 09:44:47;;;;;;;4.55;2.00;;;6.20;81.20;;;;;;4099703;29;20055;-79
2024/01/06 09:46:51;;;;;;;5.38;2.05;;;6.20;80.50;;;;;;4098479;29;20043;-80
2024/01/06 09:48:56;;;;;;;7.47;2.15;;;6.20;80.70;;;;;;4100051;29;20400;-79
2024/01/06 09:51:02;;;;;;;6.40;2.50;;;6.30;81.20;;;;;;4099752;29;20481;-79
2024/01/06 09:53:06;;;;;;;5.93;2.30;;;6.30;80.10;;;;;;4096280;29;20382;-79
2024/01/06 09:55:12;;;;;;;6.90;1.90;;;6.30;80.00;;;;;;4092847;29;20051;-75
2024/01/06 09:57:14;;;;;;;6.50;2.10;;;6.40;80.60;;;;;;4099579;29;20126;-76
2024/01/06 09:59:16;;;;;;;5.60;2.30;;;6.40;80.20;;;;;;4090584;29;20485;-80
2024/01/06 10:01:18;;;;;;;6.50;2.47;;;6.50;80.00;;;;;;4099679;29;20072;-79
2024/01/06 10:03:20;;;;;;;7.05;2.60;;;6.60;79.40;;;;;;4082728;29;20139;-79
2024/01/06 10:05:23;;;;;;;12.05;3.05;;;6.60;79.80;;;;;;4098033;29;20102;-81
2024/01/06 10:07:27;;;;;;;8.00;3.25;;;6.70;80.20;;;;;;4099561;28;20039;-81
2024/01/06 10:09:29;;;;;;;4.72;2.35;;;6.70;80.20;;;;;;4102541;29;20047;-78
2024/01/06 10:11:31;;;;;;;6.90;2.40;;;6.70;79.50;;;;;;4102328;29;20098;-78
2024/01/06 10:13:33;;;;;;;7.20;2.40;;;6.80;79.70;;;;;;4102329;29;20047;-80
2024/01/06 10:15:36;;;;;;;6.10;2.40;;;6.80;79.00;;;;;;4101053;28;20102;-80
2024/01/06 10:17:39;;;;;;;5.82;1.88;;;6.80;78.80;;;;;;4102341;29;20567;-81
2024/01/06 10:19:40;;;;;;;7.28;2.30;;;6.80;77.60;;;;;;4102013;29;20050;-82
2024/01/06 10:21:44;;;;;;;6.78;2.40;;;6.70;78.00;;;;;;4102563;29;20055;-78
2024/01/06 10:23:48;;;;;;;5.53;2.17;;;6.80;78.20;;;;;;4102329;29;20464;-80
2024/01/06 10:25:52;;;;;;;6.28;2.00;;;6.80;78.40;;;;;;4103218;29;20134;-81
2024/01/06 10:27:54;;;;;;;6.13;2.20;;;6.90;78.60;;;;;;4102597;29;20157;-80
2024/01/06 10:29:56;;;;;;;4.70;1.80;;;6.90;78.20;;;;;;4102626;29;20087;-77
2024/01/06 10:31:59;;;;;;;5.35;2.00;;;6.90;77.60;;;;;;4102438;29;20102;-79
2024/01/06 10:34:01;;;;;;;5.25;2.00;;;7.00;77.10;;;;;;4102069;29;20152;-79
2024/01/06 10:36:04;;;;;;;4.88;2.40;;;7.00;77.20;;;;;;4102086;29;20102;-79
2024/01/06 10:38:08;;;;;;;4.97;1.90;;;6.80;76.50;;;;;;4102552;29;20508;-80
2024/01/06 10:40:11;;;;;;;5.22;2.00;;;6.60;77.50;;;;;;4102471;29;20055;-79
2024/01/06 10:42:13;;;;;;;6.57;2.20;;;6.70;78.30;;;;;;4102364;29;20552;-80
2024/01/06 10:44:15;;;;;;;4.15;2.13;;;6.70;78.10;;;;;;4102382;29;20397;-79
2024/01/06 10:46:19;;;;;;;3.70;1.63;;;6.70;77.20;;;;;;4102383;29;20083;-80
2024/01/06 10:48:23;;;;;;;4.65;1.90;;;6.70;77.50;;;;;;4102447;29;20106;-80
2024/01/06 10:50:25;;;;;;;5.38;2.03;;;6.80;77.60;;;;;;4102413;29;20043;-78
2024/01/06 10:52:28;;;;;;;6.03;2.03;;;6.80;77.50;;;;;;4102160;29;20106;-80
2024/01/06 10:54:34;;;;;;;6.40;2.03;;;6.70;77.90;;;;;;4102234;29;20547;-79
2024/01/06 10:56:39;;;;;;;3.92;1.33;;;6.70;78.00;;;;;;4101894;29;20046;-82
2024/01/06 10:58:49;;;;;;;4.57;1.60;;;6.70;76.00;;;;;;4102130;29;20051;-79
2024/01/06 11:00:51;;;;;;;5.70;1.80;;;6.80;76.80;;;;;;4102088;29;20141;-80
2024/01/06 11:02:54;;;;;;;6.07;2.00;;;6.80;77.50;;;;;;4101909;29;20098;-82
2024/01/06 11:04:57;;;;;;;3.33;1.55;;;6.80;77.90;;;;;;4097420;28;20043;-75
2024/01/06 11:06:59;;;;;;;3.38;1.73;;;6.70;76.80;;;;;;4095667;28;20047;-80
2024/01/06 11:09:15;;;;;;;11.43;6.35;;;6.70;77.20;;;;;;4117813;28;20083;-80
2024/01/06 11:11:19;;;;;;;6.82;2.03;;;6.80;77.40;;;;;;4110868;28;20047;-80
2024/01/06 11:13:24;;;;;;;4.82;1.73;;;6.80;77.20;;;;;;4101962;29;20066;-81
2024/01/06 11:15:42;;;;;;;3.55;1.40;;;6.70;77.50;;;;;;4101503;29;20134;-82
2024/01/06 11:17:53;;;;;;;4.72;1.30;;;6.70;76.80;;;;;;4101401;29;20047;-78
2024/01/06 11:20:06;;;;;;;3.70;1.55;;;6.60;76.90;;;;;;4090077;28;20051;-79
2024/01/06 11:22:28;;;;;;;4.07;1.48;;;6.70;77.50;;;;;;4099077;29;20047;-80
2024/01/06 11:24:38;;;;;;;3.45;1.20;;;6.70;77.20;;;;;;4102992;29;20452;-78
2024/01/06 11:26:45;;;;;;;3.63;1.30;;;6.60;77.40;;;;;;4092075;28;20413;-80
2024/01/06 11:28:47;;;;;;;4.68;1.40;;;6.70;77.80;;;;;;4101747;29;20083;-78
2024/01/06 11:31:07;;;;;;;3.78;1.30;;;6.70;78.10;;;;;;4101545;29;20047;-79
2024/01/06 11:33:10;;;;;;;4.18;1.20;;;6.70;78.70;;;;;;4101730;29;20083;-78
2024/01/06 11:35:14;;;;;;;5.57;2.63;;;6.80;78.20;;;;;;4084090;29;20055;-80
2024/01/06 11:37:18;;;;;;;3.35;1.15;;;6.80;78.10;;;;;;4101300;29;20062;-81
2024/01/06 11:39:38;;;;;;;3.88;1.27;;;6.80;76.50;;;;;;4101724;29;20106;-79
2024/01/06 11:41:50;;;;;;;3.38;1.50;;;6.90;76.90;;;;;;4102161;29;20086;-80
2024/01/06 11:43:52;;;;;;;4.68;1.40;;;7.00;77.10;;;;;;4101593;29;20051;-79
2024/01/06 11:45:59;;;;;;;4.00;1.10;;;6.80;76.80;;;;;;4084805;29;20511;-79
2024/01/06 11:48:02;;;;;;;3.20;1.15;;;6.70;76.80;;;;;;4097384;28;20073;-79
2024/01/06 11:50:05;;;;;;;4.05;1.10;;;6.70;77.50;;;;;;4099277;29;20051;-81
2024/01/06 11:52:07;;;;;;;2.88;1.30;;;6.70;77.80;;;;;;4100866;29;20098;-79
2024/01/06 11:54:12;;;;;;;2.15;0.98;;;6.60;77.20;;;;;;4084492;29;20083;-80
2024/01/06 11:56:22;;;;;;;3.25;1.15;;;6.70;77.70;;;;;;4087463;29;20134;-80
2024/01/06 11:58:26;;;;;;;2.85;1.10;;;6.70;77.60;;;;;;4090738;29;20056;-81
2024/01/06 12:00:28;;;;;;;2.50;1.25;;;6.80;77.70;;;;;;4099014;28;20110;-82
2024/01/06 12:02:30;;;;;;;4.30;1.38;;;6.70;77.50;;;;;;4100838;29;20058;-80
2024/01/06 12:04:32;;;;;;;3.33;1.40;;;6.70;77.60;;;;;;4100661;29;20051;-80
2024/01/06 12:06:34;;;;;;;2.45;1.20;;;6.70;77.50;;;;;;4085182;29;20059;-81
2024/01/06 12:08:36;;;;;;;2.67;1.20;;;6.60;77.80;;;;;;4089286;29;20043;-81
2024/01/06 12:10:38;;;;;;;3.10;1.30;;;6.60;78.60;;;;;;4100221;29;20055;-79
2024/01/06 12:12:39;;;;;;;5.32;1.15;;;6.70;77.70;;;;;;4100423;29;20043;-80
2024/01/06 12:14:42;;;;;;;6.13;2.65;;;6.70;78.70;;;;;;4100839;29;20560;-80
2024/01/06 12:16:45;;;;;;;4.57;2.17;;;6.80;78.70;;;;;;4101429;29;20058;-80
2024/01/06 12:18:48;;;;;;;3.03;1.10;;;6.90;78.20;;;;;;4101239;28;20098;-83
2024/01/06 12:20:49;;;;;;;2.20;1.00;;;6.80;78.40;;;;;;4101451;29;20107;-84
2024/01/06 12:22:53;;;;;;;2.83;1.33;;;6.80;78.90;;;;;;4101152;29;20456;-83
2024/01/06 12:24:55;;;;;;;4.00;1.20;;;6.80;79.30;;;;;;4099509;28;20540;-81
2024/01/06 12:26:57;;;;;;;2.90;1.23;;;6.90;78.60;;;;;;4100456;29;20082;-83
2024/01/06 12:28:59;;;;;;;3.80;1.20;;;7.00;77.90;;;;;;4098978;29;20079;-84
2024/01/06 12:31:05;;;;;;;2.72;1.10;;;7.00;78.00;;;;;;4100355;28;20480;-83
2024/01/06 12:33:07;;;;;;;3.70;1.15;;;7.00;78.20;;;;;;4082166;29;20593;-83
2024/01/06 12:35:09;;;;;;;2.55;1.10;;;6.90;78.20;;;;;;4100764;29;20109;-82
2024/01/06 12:37:11;;;;;;;2.13;0.90;;;6.90;78.60;;;;;;4100458;29;20143;-82
2024/01/06 12:39:13;;;;;;;2.60;1.00;;;7.00;78.50;;;;;;4100399;29;20055;-82
2024/01/06 12:41:14;;;;;;;2.33;0.90;;;7.00;78.70;;;;;;4100517;29;20172;-81
2024/01/06 12:43:16;;;;;;;3.20;1.00;;;7.10;78.80;;;;;;4100376;29;20047;-80
2024/01/06 12:45:18;;;;;;;1.42;0.80;;;7.10;78.30;;;;;;4112267;28;20086;-83
2024/01/06 12:47:22;;;;;;;2.60;1.00;;;7.00;78.10;;;;;;4100460;29;20031;-80
2024/01/06 12:49:23;;;;;;;1.90;0.90;;;7.10;78.20;;;;;;4095570;29;20051;-83
2024/01/06 12:51:25;;;;;;;2.97;1.10;;;7.10;78.50;;;;;;4101792;29;20058;-82
2024/01/06 12:53:27;;;;;;;2.30;1.00;;;7.20;78.20;;;;;;4100637;29;20047;-82
2024/01/06 12:55:29;;;;;;;2.80;1.20;;;7.20;78.10;;;;;;4100446;29;20464;-82
2024/01/06 12:57:31;;;;;;;2.95;1.05;;;7.20;77.90;;;;;;4100526;29;20047;-83
2024/01/06 12:59:33;;;;;;;2.13;0.88;;;7.20;78.30;;;;;;4100376;29;20047;-84
2024/01/06 13:01:34;;;;;;;4.70;1.27;;;7.30;78.80;;;;;;4100284;29;20077;-83
2024/01/06 13:03:39;;;;;;;2.83;1.10;;;7.30;78.40;;;;;;4099855;29;20485;-82
2024/01/06 13:05:40;;;;;;;3.30;1.30;;;7.30;78.40;;;;;;4100331;29;20047;-82
2024/01/06 13:07:42;;;;;;;2.55;1.30;;;7.30;78.50;;;;;;4101158;29;20047;-82
2024/01/06 13:09:44;;;;;;;2.92;1.17;;;7.30;78.40;;;;;;4099617;29;20043;-80
2024/01/06 13:11:47;;;;;;;3.28;1.50;;;7.30;77.70;;;;;;4100991;29;20058;-76
2024/01/06 13:13:49;;;;;;;5.85;2.70;;;7.30;78.40;;;;;;4100103;29;20081;-79
2024/01/06 13:15:51;;;;;;;5.22;2.00;;;7.30;78.60;;;;;;4099968;29;20083;-78
2024/01/06 13:17:52;;;;;;;2.83;1.20;;;7.30;78.50;;;;;;4098568;29;20043;-78
2024/01/06 13:19:56;;;;;;;3.25;1.25;;;7.30;78.40;;;;;;4097751;29;20055;-80
2024/01/06 13:21:56;;;;;;;3.25;1.45;;;7.20;78.50;;;;;;4099153;29;20078;-78
2024/01/06 13:24:01;;;;;;;3.47;1.30;;;7.20;78.50;;;;;;4099098;29;20055;-78
2024/01/06 13:26:03;;;;;;;3.63;1.17;;;7.30;78.90;;;;;;4099452;29;20114;-79
2024/01/06 13:28:06;;;;;;;3.97;1.60;;;7.30;79.00;;;;;;4099923;29;20096;-78
2024/01/06 13:30:12;;;;;;;3.28;1.40;;;7.30;79.20;;;;;;4099741;29;20087;-79
2024/01/06 13:32:15;;;;;;;3.50;1.73;;;7.30;79.70;;;;;;4100184;29;20114;-77
2024/01/06 13:34:17;;;;;;;5.00;2.22;;;7.30;79.90;;;;;;4100004;29;20051;-79
2024/01/06 13:36:21;;;;;;;3.05;1.42;;;7.30;79.80;;;;;;4100307;29;20452;-79
2024/01/06 13:38:23;;;;;;;3.30;1.50;;;7.30;79.30;;;;;;4100465;29;20097;-77
2024/01/06 13:40:25;;;;;;;3.78;1.60;;;7.30;79.40;;;;;;4100572;29;20106;-76
2024/01/06 13:42:27;;;;;;;3.33;1.63;;;7.40;79.60;;;;;;4100489;28;20043;-79
2024/01/06 13:44:29;;;;;;;4.47;2.10;;;7.40;80.30;;;;;;4103185;29;20122;-79
2024/01/06 13:46:31;;;;;;;4.57;2.10;;;7.40;80.70;;;;;;4102725;29;20461;-79
2024/01/06 13:48:33;;;;;;;3.90;2.20;;;7.40;80.90;;;;;;4103173;29;20051;-81
2024/01/06 13:50:34;;;;;;;5.47;2.58;;;7.40;80.80;;;;;;4102974;29;20103;-80
2024/01/06 13:52:38;;;;;;;5.90;2.60;;;7.40;80.70;;;;;;4102960;29;20082;-78
2024/01/06 13:54:40;;;;;;;13.07;7.50;;;7.40;80.80;;;;;;4103098;29;20083;-77
2024/01/06 13:56:41;;;;;;;17.25;9.45;;;7.40;81.00;;;;;;4101086;28;20460;-79
2024/01/06 13:58:43;;;;;;;12.18;6.90;;;7.40;81.20;;;;;;4102117;29;20043;-78
2024/01/06 14:00:46;;;;;;;7.38;4.03;;;7.40;81.40;;;;;;4102482;29;20069;-79
2024/01/06 14:02:48;;;;;;;12.25;6.78;;;7.30;81.10;;;;;;4102838;29;20054;-78
2024/01/06 14:04:50;;;;;;;6.10;3.42;;;7.40;81.70;;;;;;4102958;29;20467;-77
2024/01/06 14:06:55;;;;;;;6.75;3.17;;;7.30;81.30;;;;;;4102594;29;20106;-79
2024/01/06 14:08:59;;;;;;;12.43;6.20;;;7.30;81.40;;;;;;4102553;29;20051;-77
2024/01/06 14:11:01;;;;;;;10.35;5.07;;;7.30;81.80;;;;;;4102545;29;20110;-79
2024/01/06 14:13:03;;;;;;;6.50;3.70;;;7.30;82.10;;;;;;4102539;29;20110;-79
2024/01/06 14:15:06;;;;;;;5.20;3.30;;;7.30;81.90;;;;;;4100423;29;20098;-81
2024/01/06 14:17:08;;;;;;;7.55;3.58;;;7.30;81.90;;;;;;4101923;29;20130;-80
2024/01/06 14:19:09;;;;;;;5.30;3.42;;;7.40;82.20;;;;;;4102065;29;20106;-80
2024/01/06 14:21:11;;;;;;;6.38;3.10;;;7.40;82.00;;;;;;4102165;29;20075;-79
2024/01/06 14:23:13;;;;;;;5.20;3.40;;;7.30;81.70;;;;;;4096920;29;20079;-78
2024/01/06 14:25:18;;;;;;;4.78;3.10;;;7.30;82.00;;;;;;4094815;29;20055;-79
2024/01/06 14:27:21;;;;;;;5.07;3.05;;;7.30;82.00;;;;;;4101270;29;20061;-79
2024/01/06 14:29:23;;;;;;;6.18;3.50;;;7.30;82.00;;;;;;4102097;29;20043;-79
2024/01/06 14:31:26;;;;;;;5.53;3.60;;;7.30;81.70;;;;;;4102575;29;20047;-77
2024/01/06 14:33:28;;;;;;;6.82;3.78;;;7.30;82.00;;;;;;4102302;29;20047;-75
2024/01/06 14:35:30;;;;;;;6.45;3.78;;;7.30;82.00;;;;;;4102490;29;20110;-76
2024/01/06 14:37:32;;;;;;;8.65;5.00;;;7.30;81.90;;;;;;4102472;29;20452;-75
2024/01/06 14:39:34;;;;;;;8.43;5.22;;;7.30;81.90;;;;;;4102381;29;20106;-77
2024/01/06 14:41:38;;;;;;;9.05;5.43;;;7.30;82.00;;;;;;4100401;29;20050;-78
2024/01/06 14:43:40;;;;;;;8.85;4.90;;;7.30;81.80;;;;;;4101898;29;20109;-76
2024/01/06 14:45:42;;;;;;;6.28;3.97;;;7.30;82.10;;;;;;4102019;29;20078;-75
2024/01/06 14:47:44;;;;;;;9.23;5.13;;;7.20;81.70;;;;;;4101777;29;20087;-76
2024/01/06 14:49:46;;;;;;;7.10;3.30;;;7.30;82.10;;;;;;4102150;29;20460;-77
2024/01/06 14:51:48;;;;;;;6.47;3.67;;;7.20;81.40;;;;;;4102257;29;20051;-77
2024/01/06 14:53:50;;;;;;;7.57;4.35;;;7.20;81.80;;;;;;4101749;28;20051;-77
2024/01/06 14:55:51;;;;;;;9.25;5.07;;;7.20;82.40;;;;;;4102176;29;20086;-75
2024/01/06 14:57:55;;;;;;;8.65;5.05;;;7.20;82.30;;;;;;4101732;29;20468;-78
2024/01/06 14:59:56;;;;;;;8.75;5.47;;;7.20;82.10;;;;;;4101818;29;20055;-74
2024/01/06 15:01:58;;;;;;;9.80;6.10;;;7.20;82.20;;;;;;4101958;29;20118;-74
2024/01/06 15:04:00;;;;;;;8.27;5.13;;;7.20;82.10;;;;;;4101985;29;20548;-76
2024/01/06 15:06:03;;;;;;;7.60;5.30;;;7.20;82.20;;;;;;4101481;29;20090;-77
2024/01/06 15:08:06;;;;;;;7.30;5.00;;;7.20;82.20;;;;;;4102199;29;20407;-77
2024/01/06 15:10:09;;;;;;;7.75;4.55;;;7.10;82.30;;;;;;4099671;29;20050;-77
2024/01/06 15:12:11;;;;;;;7.78;4.47;;;7.20;82.70;;;;;;4101846;29;20044;-77
2024/01/06 15:14:14;;;;;;;7.13;4.53;;;7.20;82.50;;;;;;4101211;29;20055;-78
2024/01/06 15:16:16;;;;;;;7.40;4.80;;;7.20;82.40;;;;;;4086169;29;20052;-76
2024/01/06 15:18:20;;;;;;;9.70;5.25;;;7.10;82.40;;;;;;4086192;29;20067;-76
2024/01/06 15:20:23;;;;;;;8.15;5.38;;;7.10;82.60;;;;;;4100958;29;20078;-77
2024/01/06 15:22:24;;;;;;;9.10;5.78;;;7.10;82.80;;;;;;4101556;29;20090;-78
2024/01/06 15:24:26;;;;;;;9.20;6.25;;;7.10;83.00;;;;;;4101902;29;20445;-77
2024/01/06 15:26:28;;;;;;;22.58;10.93;;;7.10;83.00;;;;;;4101639;29;20051;-77
2024/01/06 15:28:29;;;;;;;8.70;5.78;;;7.10;83.20;;;;;;4101284;29;20051;-76
2024/01/06 15:30:32;;;;;;;9.73;5.65;;;7.00;83.20;;;;;;4101636;29;20378;-78
2024/01/06 15:32:35;;;;;;;8.10;5.47;;;7.00;83.70;;;;;;4101508;29;20090;-74
2024/01/06 15:34:37;;;;;;;9.90;6.32;;;7.00;83.60;;;;;;4101606;29;20056;-78
2024/01/06 15:36:39;;;;;;;7.40;4.90;;;7.00;83.50;;;;;;4098534;29;20055;-77
2024/01/06 15:38:41;;;;;;;8.43;5.60;;;6.90;83.40;;;;;;4099504;29;20476;-79
2024/01/06 15:40:43;;;;;;;8.15;4.95;;;6.90;83.20;;;;;;4083590;29;20138;-78
2024/01/06 15:42:45;;;;;;;8.80;5.30;;;6.90;83.40;;;;;;4083563;29;20051;-76
2024/01/06 15:44:47;;;;;;;8.50;5.35;;;6.90;83.40;;;;;;4083236;29;20135;-78
2024/01/06 15:46:50;;;;;;;7.60;5.05;;;6.90;83.30;;;;;;4083320;29;20512;-78
2024/01/06 15:48:52;;;;;;;7.63;5.30;;;6.90;83.50;;;;;;4088559;29;20050;-77
2024/01/06 15:50:54;;;;;;;6.90;4.72;;;6.80;83.70;;;;;;4098926;29;20059;-78
2024/01/06 15:52:56;;;;;;;7.72;5.60;;;6.80;83.80;;;;;;4098857;29;20063;-76
2024/01/06 15:54:58;;;;;;;9.02;5.57;;;6.80;83.80;;;;;;4098597;29;20473;-78
2024/01/06 15:57:00;;;;;;;7.00;5.43;;;6.80;84.00;;;;;;4099170;29;20047;-76
2024/01/06 15:59:02;;;;;;;9.32;5.63;;;6.80;83.80;;;;;;4099138;29;20460;-76
2024/01/06 16:01:05;;;;;;;8.52;5.47;;;6.70;84.20;;;;;;4098278;29;20047;-77
2024/01/06 16:03:08;;;;;;;7.75;5.00;;;6.70;84.40;;;;;;4099129;29;20090;-77
2024/01/06 16:05:13;;;;;;;8.75;5.63;;;6.70;84.30;;;;;;4098400;28;20051;-77
2024/01/06 16:07:15;;;;;;;7.78;5.28;;;6.70;84.30;;;;;;4096718;29;20452;-79
2024/01/06 16:09:17;;;;;;;8.35;5.40;;;6.70;84.40;;;;;;4098921;29;20762;-75
2024/01/06 16:11:19;;;;;;;9.77;5.80;;;6.70;84.70;;;;;;4098943;29;20047;-77
2024/01/06 16:13:21;;;;;;;7.97;5.68;;;6.60;84.90;;;;;;4098107;29;20051;-77
2024/01/06 16:15:23;;;;;;;8.73;6.00;;;6.60;85.10;;;;;;4098797;28;20043;-77
2024/01/06 16:17:24;;;;;;;9.45;5.85;;;6.60;85.60;;;;;;4098859;29;20102;-75
2024/01/06 16:19:28;;;;;;;8.77;5.65;;;6.60;85.80;;;;;;4098610;29;20047;-76
2024/01/06 16:21:30;;;;;;;8.52;5.82;;;6.60;85.80;;;;;;4098841;29;20118;-77
2024/01/06 16:23:32;;;;;;;8.27;5.60;;;6.60;85.70;;;;;;4098572;29;20048;-77
2024/01/06 16:25:38;;;;;;;8.52;5.78;;;6.60;85.70;;;;;;4097195;29;20086;-79
2024/01/06 16:27:40;;;;;;;8.93;6.05;;;6.60;85.50;;;;;;4098653;29;20524;-77
2024/01/06 16:29:42;;;;;;;10.27;6.68;;;6.70;85.50;;;;;;4098483;29;20382;-79
2024/01/06 16:31:44;;;;;;;10.77;6.53;;;6.70;85.20;;;;;;4098147;29;20047;-76
2024/01/06 16:33:46;;;;;;;11.13;6.32;;;6.60;85.50;;;;;;4098640;29;20402;-79
2024/01/06 16:35:49;;;;;;;10.90;6.40;;;6.60;85.50;;;;;;4098365;29;20055;-77
2024/01/06 16:37:51;;;;;;;8.80;5.95;;;6.70;85.40;;;;;;4099556;29;20457;-79
2024/01/06 16:39:52;;;;;;;9.45;5.88;;;6.60;85.20;;;;;;4100451;29;20043;-79
2024/01/06 16:41:57;;;;;;;9.48;6.60;;;6.60;85.50;;;;;;4099406;29;20066;-78
2024/01/06 16:43:58;;;;;;;10.13;6.32;;;6.60;85.60;;;;;;4100941;29;20397;-77
2024/01/06 16:46:00;;;;;;;8.82;5.85;;;6.60;85.80;;;;;;4100179;29;20102;-77